Terminal Aerodrome Forecast
Issued by NWS

Home | Current Version | Previous Version | Text Only | Print | Product List | Glossary On
Versions: 1 2 3 4 5 6 7 8 9 10 11 12 13 14
000
FTUS42 KGSP 300529
TAFHKY
TAF
KHKY 300529Z 3006/3106 01004KT P6SM VCSH BKN030 OVC050
     FM301400 02004KT P6SM SCT080
     FM301900 02006KT P6SM BKN060 PROB30 3019/3101 4SM -TSRA
      OVC040CB
     FM310300 VRB02KT P6SM BKN060=

USA.gov is the U.S. government's official web portal to all federal, state and local government web resources and services.